createdAt,value
2023-04-01T00:04:48.136Z,60.02
2023-04-01T00:07:57.890Z,59.88
2023-04-01T00:11:03.471Z,60.30
2023-04-01T00:14:11.227Z,59.81
2023-04-01T00:17:16.831Z,60.91
2023-04-01T00:20:23.397Z,60.83
2023-04-01T00:23:31.990Z,60.24
2023-04-01T00:26:38.621Z,61.12
2023-04-01T00:29:46.685Z,60.75
2023-04-01T00:32:56.430Z,61.37
2023-04-01T00:36:11.723Z,60.91
2023-04-01T00:39:21.093Z,61.14
2023-04-01T00:42:28.092Z,60.81
2023-04-01T00:45:41.150Z,60.87
2023-04-01T00:48:53.433Z,60.76
2023-04-01T00:52:08.463Z,61.21
2023-04-01T00:55:22.805Z,61.26
2023-04-01T00:58:37.500Z,60.57
2023-04-01T01:01:43.462Z,61.50
2023-04-01T01:04:51.032Z,61.59
2023-04-01T01:08:11.269Z,62.22
2023-04-01T01:11:42.778Z,62.25
2023-04-01T01:15:05.970Z,62.55
2023-04-01T01:18:24.751Z,62.34
2023-04-01T01:22:01.601Z,61.82
2023-04-01T01:25:38.323Z,62.26
2023-04-01T01:29:10.747Z,62.13
2023-04-01T01:32:47.273Z,62.68
2023-04-01T01:36:02.162Z,62.53
2023-04-01T01:39:13.660Z,61.74
2023-04-01T01:42:28.374Z,62.19
2023-04-01T01:45:41.311Z,62.60
2023-04-01T01:48:51.893Z,62.34
2023-04-01T01:52:01.164Z,62.63
2023-04-01T01:55:32.420Z,62.76
2023-04-01T01:58:47.366Z,62.67
2023-04-01T02:02:01.420Z,62.96
2023-04-01T02:05:12.390Z,62.40
2023-04-01T02:08:30.939Z,63.03
2023-04-01T02:11:45.867Z,63.12
2023-04-01T02:15:01.637Z,62.99
2023-04-01T02:18:09.846Z,63.41
2023-04-01T02:21:19.690Z,63.11
2023-04-01T02:24:34.521Z,62.92
2023-04-01T02:27:43.392Z,63.42
2023-04-01T02:30:51.168Z,63.44
2023-04-01T02:33:59.280Z,63.20
2023-04-01T02:37:05.802Z,63.00
2023-04-01T02:40:18.946Z,63.22
2023-04-01T02:43:24.591Z,63.85
2023-04-01T02:46:31.375Z,62.73
2023-04-01T02:49:37.032Z,63.15
2023-04-01T02:52:43.481Z,62.51
2023-04-01T02:55:53.644Z,62.30
2023-04-01T02:59:00.601Z,62.64
2023-04-01T03:02:06.406Z,62.53
2023-04-01T03:05:14.015Z,62.04
2023-04-01T03:08:20.299Z,62.85
2023-04-01T03:11:29.820Z,62.00
2023-04-01T03:14:35.727Z,62.46
2023-04-01T03:17:42.759Z,62.88
2023-04-01T03:20:49.687Z,62.57
2023-04-01T03:23:56.895Z,63.00
2023-04-01T03:27:05.551Z,62.75
2023-04-01T03:30:13.736Z,62.66
2023-04-01T03:33:28.007Z,62.58
2023-04-01T03:36:34.925Z,62.50
2023-04-01T03:39:42.543Z,62.37
2023-04-01T03:42:54.152Z,61.92
2023-04-01T03:46:00.760Z,61.75
2023-04-01T03:49:12.911Z,62.71
2023-04-01T03:52:18.750Z,62.37
2023-04-01T03:55:25.400Z,62.54
2023-04-01T03:58:34.423Z,62.50
2023-04-01T04:01:42.753Z,63.04
2023-04-01T04:04:49.040Z,62.88
2023-04-01T04:07:56.960Z,62.93
2023-04-01T04:11:03.454Z,63.08
2023-04-01T04:14:12.959Z,62.49
2023-04-01T04:17:18.636Z,62.23
2023-04-01T04:20:25.210Z,62.74
2023-04-01T04:23:31.847Z,63.27
2023-04-01T04:26:38.688Z,63.06
2023-04-01T04:29:47.169Z,63.14
2023-04-01T04:32:53.634Z,63.10
2023-04-01T04:36:02.340Z,63.58
2023-04-01T04:39:09.010Z,63.44
2023-04-01T04:42:17.646Z,63.18
2023-04-01T04:45:28.569Z,63.56
2023-04-01T04:48:35.822Z,63.34
2023-04-01T04:51:42.736Z,62.99
2023-04-01T04:54:48.974Z,62.77
2023-04-01T04:57:55.913Z,62.97
2023-04-01T05:01:11.914Z,62.42
2023-04-01T05:04:19.801Z,62.44
2023-04-01T05:07:25.447Z,62.94
2023-04-01T05:10:32.789Z,62.47
2023-04-01T05:13:39.084Z,62.25
2023-04-01T05:16:48.472Z,62.25
2023-04-01T05:19:54.293Z,62.06
2023-04-01T05:23:01.613Z,62.66
2023-04-01T05:26:10.172Z,61.37
2023-04-01T05:29:17.527Z,61.31
2023-04-01T05:32:29.431Z,61.30
2023-04-01T05:35:37.104Z,61.43
2023-04-01T05:38:44.466Z,61.46
2023-04-01T05:41:52.298Z,60.94
2023-04-01T05:45:00.978Z,60.91
2023-04-01T05:48:29.181Z,61.70
2023-04-01T05:51:34.781Z,61.24
2023-04-01T05:54:41.356Z,61.08
2023-04-01T05:57:50.806Z,61.39
2023-04-01T06:01:10.302Z,61.39
2023-04-01T06:04:24.924Z,60.83
2023-04-01T06:07:33.571Z,61.59
2023-04-01T06:11:16.933Z,61.67
2023-04-01T06:14:42.844Z,60.77
2023-04-01T06:18:18.572Z,60.68
2023-04-01T06:22:17.046Z,61.06
2023-04-01T06:25:52.638Z,61.50
2023-04-01T06:29:48.444Z,60.10
2023-04-01T06:33:18.547Z,60.45
2023-04-01T06:37:05.253Z,60.47
2023-04-01T06:41:08.091Z,60.28
2023-04-01T06:44:32.544Z,60.13
2023-04-01T06:48:29.876Z,59.58
2023-04-01T06:52:35.837Z,59.98
2023-04-01T06:56:34.218Z,59.22
2023-04-01T06:59:49.955Z,59.50
2023-04-01T07:03:11.815Z,59.30
2023-04-01T07:06:32.025Z,58.53
2023-04-01T07:09:53.715Z,59.43
2023-04-01T07:13:25.070Z,59.47
2023-04-01T07:16:42.290Z,59.32
2023-04-01T07:20:00.569Z,59.87
2023-04-01T07:23:15.277Z,59.85
2023-04-01T07:26:36.428Z,59.97
2023-04-01T07:29:42.101Z,60.75
2023-04-01T07:33:01.105Z,61.26
2023-04-01T07:36:22.338Z,59.86
2023-04-01T07:39:46.477Z,60.20
2023-04-01T07:43:45.450Z,61.71
2023-04-01T07:47:25.842Z,62.65
2023-04-01T07:50:36.185Z,63.20
2023-04-01T07:53:55.267Z,63.09
2023-04-01T07:57:16.520Z,62.78
2023-04-01T08:00:47.747Z,63.53
2023-04-01T08:04:53.154Z,63.31
2023-04-01T08:08:19.606Z,61.78
2023-04-01T08:12:37.208Z,61.96
2023-04-01T08:16:54.391Z,62.09
2023-04-01T08:20:28.045Z,62.03
2023-04-01T08:23:46.118Z,61.39
2023-04-01T08:27:03.341Z,61.03
2023-04-01T08:30:23.305Z,60.91
2023-04-01T08:33:35.324Z,61.38
2023-04-01T08:36:55.636Z,60.72
2023-04-01T08:40:31.914Z,61.07
2023-04-01T08:44:45.287Z,62.73
2023-04-01T08:48:40.723Z,61.34
2023-04-01T08:52:22.320Z,62.61
2023-04-01T08:55:44.678Z,61.81
2023-04-01T08:59:31.648Z,62.62
2023-04-01T09:03:15.613Z,63.09
2023-04-01T09:06:56.676Z,63.82
2023-04-01T09:10:44.158Z,64.10
2023-04-01T09:14:46.510Z,64.87
2023-04-01T09:18:50.339Z,64.44
2023-04-01T09:22:29.867Z,64.38
2023-04-01T09:25:58.000Z,64.27
2023-04-01T09:29:27.924Z,63.03
2023-04-01T09:33:27.386Z,65.37
2023-04-01T09:36:50.281Z,64.36
2023-04-01T09:40:22.904Z,65.55
2023-04-01T09:44:05.957Z,66.45
2023-04-01T09:47:53.429Z,67.23
2023-04-01T09:51:20.315Z,68.16
2023-04-01T09:54:56.201Z,68.08
2023-04-01T09:59:06.293Z,66.51
2023-04-01T10:04:14.185Z,66.29
2023-04-01T10:08:12.010Z,66.98
2023-04-01T10:12:21.039Z,66.79
2023-04-01T10:16:20.574Z,66.01
2023-04-01T10:20:07.187Z,65.13
2023-04-01T10:23:42.249Z,64.43
2023-04-01T10:27:51.014Z,64.75
2023-04-01T10:32:22.479Z,65.73
2023-04-01T10:36:18.877Z,65.15
2023-04-01T10:40:23.963Z,66.59
2023-04-01T10:45:17.251Z,67.52
2023-04-01T10:49:30.943Z,68.07
2023-04-01T10:53:33.771Z,67.42
2023-04-01T10:57:06.864Z,66.82
2023-04-01T11:01:18.520Z,66.02
2023-04-01T11:06:15.870Z,64.49
2023-04-01T11:10:34.965Z,63.62
2023-04-01T11:14:25.849Z,62.44
2023-04-01T11:18:39.329Z,62.26
2023-04-01T11:22:14.970Z,61.98
2023-04-01T11:26:19.535Z,61.24
2023-04-01T11:30:54.949Z,61.05
2023-04-01T11:34:25.362Z,60.25
2023-04-01T11:37:55.876Z,58.75
2023-04-01T11:41:44.982Z,57.82
2023-04-01T11:45:29.995Z,59.09
2023-04-01T11:49:02.910Z,57.65
2023-04-01T11:52:32.843Z,57.43
2023-04-01T11:56:03.878Z,58.23
2023-04-01T12:00:04.059Z,56.99
2023-04-01T12:04:04.770Z,58.92
2023-04-01T12:07:28.174Z,59.15
2023-04-01T12:10:53.988Z,59.92
2023-04-01T12:14:15.686Z,60.17
2023-04-01T12:17:41.569Z,60.75
2023-04-01T12:20:59.032Z,61.04
2023-04-01T12:24:57.190Z,60.54
2023-04-01T12:28:24.958Z,61.03
2023-04-01T12:31:50.658Z,60.55
2023-04-01T12:35:23.544Z,60.50
2023-04-01T12:38:51.945Z,59.78
2023-04-01T12:42:17.662Z,58.90
2023-04-01T12:45:35.591Z,59.10
2023-04-01T12:49:35.517Z,57.24
2023-04-01T12:53:07.089Z,57.22
2023-04-01T12:56:41.058Z,56.37
2023-04-01T13:00:20.492Z,55.99
2023-04-01T13:04:10.185Z,55.26
2023-04-01T13:08:00.157Z,55.42
2023-04-01T13:11:22.697Z,55.52
2023-04-01T13:15:07.534Z,55.51
2023-04-01T13:18:36.804Z,55.64
2023-04-01T13:22:01.521Z,55.53
2023-04-01T13:25:23.410Z,55.56
2023-04-01T13:28:41.412Z,55.83
2023-04-01T13:32:10.432Z,55.22
2023-04-01T13:35:41.313Z,55.67
2023-04-01T13:39:20.898Z,56.20
2023-04-01T13:42:39.316Z,55.80
2023-04-01T13:46:20.565Z,55.92
2023-04-01T13:50:11.980Z,54.77
2023-04-01T13:53:59.941Z,59.13
2023-04-01T13:57:32.058Z,63.60
2023-04-01T14:01:07.557Z,65.85
2023-04-01T14:04:48.495Z,67.45
2023-04-01T14:08:12.609Z,68.60
2023-04-01T14:11:39.475Z,68.84
2023-04-01T14:15:22.965Z,68.17
2023-04-01T14:19:16.251Z,67.49
2023-04-01T14:22:42.915Z,67.88
2023-04-01T14:26:35.688Z,67.34
2023-04-01T14:30:04.639Z,66.88
2023-04-01T14:33:35.726Z,65.80
2023-04-01T14:37:16.399Z,66.31
2023-04-01T14:40:38.709Z,65.46
2023-04-01T14:44:34.105Z,63.51
2023-04-01T14:47:56.281Z,64.82
2023-04-01T14:51:14.846Z,66.69
2023-04-01T14:54:36.377Z,66.73
2023-04-01T14:57:42.264Z,66.43
2023-04-01T15:01:15.211Z,66.86
2023-04-01T15:04:58.795Z,65.67
2023-04-01T15:08:21.277Z,66.62
2023-04-01T15:11:50.770Z,66.01
2023-04-01T15:15:29.173Z,65.68
2023-04-01T15:18:59.817Z,66.52
2023-04-01T15:22:48.467Z,66.80
2023-04-01T15:26:24.627Z,68.68
2023-04-01T15:30:06.159Z,69.20
2023-04-01T15:33:57.039Z,69.07
2023-04-01T15:37:21.103Z,69.38
2023-04-01T15:40:35.381Z,67.71
2023-04-01T15:43:50.141Z,69.18
2023-04-01T15:46:56.809Z,68.46
2023-04-01T15:50:48.673Z,68.07
2023-04-01T15:54:46.003Z,68.97
2023-04-01T15:58:35.927Z,68.16
2023-04-01T16:02:00.429Z,69.54
2023-04-01T16:05:41.746Z,69.08
2023-04-01T16:09:12.591Z,69.25
2023-04-01T16:12:29.808Z,69.61
2023-04-01T16:15:55.066Z,69.64
2023-04-01T16:19:30.686Z,70.68
2023-04-01T16:22:49.732Z,71.73
2023-04-01T16:26:10.841Z,71.38
2023-04-01T16:29:37.071Z,72.22
2023-04-01T16:32:58.826Z,71.69
2023-04-01T16:36:18.078Z,71.07
2023-04-01T16:39:42.398Z,71.45
2023-04-01T16:42:57.054Z,70.63
2023-04-01T16:46:36.899Z,70.09
2023-04-01T16:49:56.152Z,70.26
2023-04-01T16:53:13.882Z,69.75
2023-04-01T16:56:28.563Z,69.90
2023-04-01T16:59:42.082Z,69.07
2023-04-01T17:03:03.011Z,69.76
2023-04-01T17:06:31.814Z,69.83
2023-04-01T17:10:09.785Z,69.41
2023-04-01T17:13:40.131Z,69.08
2023-04-01T17:17:26.066Z,67.87
2023-04-01T17:20:54.370Z,67.88
2023-04-01T17:24:33.535Z,67.84
2023-04-01T17:27:55.627Z,68.40
2023-04-01T17:31:23.039Z,68.46
2023-04-01T17:35:01.089Z,68.28
2023-04-01T17:38:28.245Z,68.06
2023-04-01T17:41:51.570Z,68.78
2023-04-01T17:45:14.967Z,68.20
2023-04-01T17:48:45.182Z,69.07
2023-04-01T17:52:11.646Z,68.59
2023-04-01T17:55:55.469Z,68.06
2023-04-01T17:59:20.542Z,69.02
2023-04-01T18:02:46.145Z,68.89
2023-04-01T18:06:18.111Z,68.55
2023-04-01T18:09:47.322Z,68.32
2023-04-01T18:13:35.445Z,68.37
2023-04-01T18:17:17.243Z,68.32
2023-04-01T18:20:44.064Z,68.36
2023-04-01T18:24:02.995Z,69.35
2023-04-01T18:27:20.638Z,68.82
2023-04-01T18:30:37.154Z,67.96
2023-04-01T18:33:59.436Z,67.56
2023-04-01T18:37:23.659Z,67.78
2023-04-01T18:40:39.746Z,67.85
2023-04-01T18:44:08.003Z,68.53
2023-04-01T18:47:34.521Z,67.69
2023-04-01T18:50:52.008Z,68.39
2023-04-01T18:54:06.900Z,68.26
2023-04-01T18:57:20.365Z,69.11
2023-04-01T19:00:36.967Z,68.41
2023-04-01T19:03:59.896Z,68.70
2023-04-01T19:07:44.929Z,69.43
2023-04-01T19:11:11.991Z,69.83
2023-04-01T19:14:34.856Z,68.97
2023-04-01T19:18:02.756Z,70.04
2023-04-01T19:21:20.893Z,69.58
2023-04-01T19:24:56.815Z,69.50
2023-04-01T19:28:21.977Z,68.99
2023-04-01T19:31:57.024Z,69.50
2023-04-01T19:35:24.758Z,68.89
2023-04-01T19:38:42.511Z,67.41
2023-04-01T19:42:03.693Z,67.97
2023-04-01T19:45:34.628Z,67.75
2023-04-01T19:49:08.623Z,67.47
2023-04-01T19:52:27.165Z,68.55
2023-04-01T19:55:48.810Z,67.79
2023-04-01T19:59:08.726Z,68.85
2023-04-01T20:02:48.336Z,67.85
2023-04-01T20:06:15.763Z,67.97
2023-04-01T20:10:02.205Z,69.10
2023-04-01T20:13:25.201Z,69.04
2023-04-01T20:16:56.776Z,68.77
2023-04-01T20:20:19.609Z,68.02
2023-04-01T20:23:47.828Z,68.22
2023-04-01T20:27:11.375Z,68.83
2023-04-01T20:31:17.245Z,68.83
2023-04-01T20:35:12.764Z,68.13
2023-04-01T20:39:32.075Z,67.16
2023-04-01T20:43:04.118Z,67.74
2023-04-01T20:46:24.205Z,67.90
2023-04-01T20:50:00.561Z,66.66
2023-04-01T20:53:19.826Z,67.12
2023-04-01T20:56:52.605Z,67.17
2023-04-01T21:00:34.028Z,67.21
2023-04-01T21:03:59.073Z,67.24
2023-04-01T21:07:31.133Z,67.57
2023-04-01T21:10:54.611Z,68.18
2023-04-01T21:14:38.155Z,68.71
2023-04-01T21:18:08.750Z,68.44
2023-04-01T21:21:53.350Z,68.39
2023-04-01T21:25:31.569Z,69.42
2023-04-01T21:29:14.178Z,69.05
2023-04-01T21:32:41.916Z,69.92
2023-04-01T21:36:05.175Z,69.79
2023-04-01T21:39:46.046Z,69.27
2023-04-01T21:43:10.369Z,69.13
2023-04-01T21:47:03.131Z,69.16
2023-04-01T21:50:59.832Z,68.96
2023-04-01T21:54:41.710Z,68.75
2023-04-01T21:59:00.531Z,68.90
2023-04-01T22:02:56.397Z,69.56
2023-04-01T22:06:26.781Z,68.52
2023-04-01T22:09:44.367Z,68.67
2023-04-01T22:13:02.135Z,69.07
2023-04-01T22:16:27.072Z,69.39
2023-04-01T22:19:52.222Z,69.50
2023-04-01T22:23:30.514Z,68.41
2023-04-01T22:26:48.175Z,68.85
2023-04-01T22:30:14.155Z,69.22
2023-04-01T22:33:36.456Z,68.91
2023-04-01T22:37:03.729Z,68.79
2023-04-01T22:40:32.240Z,68.42
2023-04-01T22:43:45.719Z,67.95
2023-04-01T22:47:09.770Z,69.16
2023-04-01T22:50:26.018Z,68.24
2023-04-01T22:53:58.500Z,69.08
2023-04-01T22:57:12.848Z,68.88
2023-04-01T23:00:28.754Z,67.78
2023-04-01T23:03:41.683Z,68.82
2023-04-01T23:06:56.765Z,69.07
2023-04-01T23:10:18.571Z,68.54
2023-04-01T23:13:35.516Z,69.38
2023-04-01T23:16:54.724Z,68.36
2023-04-01T23:20:19.500Z,68.45
2023-04-01T23:23:43.773Z,69.11
2023-04-01T23:27:04.424Z,69.04
2023-04-01T23:30:54.574Z,68.62
2023-04-01T23:34:04.445Z,69.55
2023-04-01T23:37:17.507Z,69.24
2023-04-01T23:40:23.390Z,69.05
2023-04-01T23:43:40.387Z,69.28
2023-04-01T23:46:51.959Z,69.07
2023-04-01T23:50:05.246Z,69.63
2023-04-01T23:53:29.675Z,68.88
2023-04-01T23:56:47.765Z,69.70
